createdAt,value
2022-08-18T00:01:33.655Z,6.38
2022-08-18T00:04:03.682Z,7.85
2022-08-18T00:06:47.248Z,7.25
2022-08-18T00:09:13.924Z,7.00
2022-08-18T00:11:43.179Z,6.43
2022-08-18T00:14:21.384Z,3.95
2022-08-18T00:16:50.986Z,5.57
2022-08-18T00:19:17.729Z,7.38
2022-08-18T00:21:44.438Z,4.65
2022-08-18T00:24:11.231Z,5.28
2022-08-18T00:26:38.036Z,4.97
2022-08-18T00:29:05.210Z,5.00
2022-08-18T00:31:33.250Z,5.80
2022-08-18T00:34:00.549Z,6.47
2022-08-18T00:36:28.123Z,5.75
2022-08-18T00:38:54.952Z,5.50
2022-08-18T00:41:21.934Z,7.95
2022-08-18T00:43:52.254Z,9.70
2022-08-18T00:46:34.854Z,7.43
2022-08-18T00:49:02.557Z,5.17
2022-08-18T00:51:43.440Z,8.20
2022-08-18T00:54:24.117Z,6.65
2022-08-18T00:56:55.619Z,6.07
2022-08-18T00:59:46.207Z,7.93
2022-08-18T01:02:19.243Z,5.75
2022-08-18T01:04:55.461Z,4.35
2022-08-18T01:07:40.427Z,5.20
2022-08-18T01:10:07.836Z,6.68
2022-08-18T01:12:45.336Z,5.68
2022-08-18T01:15:28.046Z,6.00
2022-08-18T01:21:06.182Z,10.65
2022-08-18T01:23:32.899Z,4.97
2022-08-18T01:26:04.364Z,8.07
2022-08-18T01:28:34.360Z,6.13
2022-08-18T01:31:02.469Z,5.78
2022-08-18T01:33:33.152Z,7.60
2022-08-18T01:36:16.800Z,7.82
2022-08-18T01:41:28.783Z,5.70
2022-08-18T01:43:58.768Z,4.75
2022-08-18T01:46:26.913Z,5.00
2022-08-18T01:48:53.852Z,6.85
2022-08-18T01:51:36.298Z,5.40
2022-08-18T01:54:07.843Z,5.05
2022-08-18T01:56:34.538Z,8.52
2022-08-18T01:59:01.201Z,6.93
2022-08-18T02:01:36.335Z,5.20
2022-08-18T02:04:33.258Z,6.43
2022-08-18T02:06:54.481Z,6.50
2022-08-18T02:09:23.727Z,3.58
2022-08-18T02:11:51.197Z,6.15
2022-08-18T02:14:20.434Z,6.50
2022-08-18T02:16:53.690Z,6.80
2022-08-18T02:19:26.159Z,5.80
2022-08-18T02:21:53.124Z,7.50
2022-08-18T02:24:20.137Z,6.82
2022-08-18T02:26:46.872Z,6.25
2022-08-18T02:29:13.782Z,3.95
2022-08-18T02:31:40.455Z,4.88
2022-08-18T02:34:07.144Z,5.63
2022-08-18T02:36:33.897Z,4.30
2022-08-18T02:39:00.719Z,7.70
2022-08-18T02:41:29.297Z,5.72
2022-08-18T02:43:56.806Z,5.75
2022-08-18T02:46:23.875Z,5.50
2022-08-18T02:48:57.387Z,5.38
2022-08-18T02:51:25.793Z,3.63
2022-08-18T02:53:54.078Z,8.20
2022-08-18T02:56:39.864Z,8.45
2022-08-18T02:59:11.361Z,4.85
2022-08-18T03:01:40.504Z,5.38
2022-08-18T03:04:08.871Z,3.03
2022-08-18T03:06:37.355Z,5.13
2022-08-18T03:09:08.511Z,4.88
2022-08-18T03:11:36.586Z,8.38
2022-08-18T03:14:05.656Z,7.10
2022-08-18T03:16:33.496Z,4.55
2022-08-18T03:19:01.545Z,7.45
2022-08-18T03:21:31.644Z,6.88
2022-08-18T03:24:00.966Z,13.05
2022-08-18T03:26:30.312Z,5.75
2022-08-18T03:29:00.102Z,7.97
2022-08-18T03:31:31.311Z,6.90
2022-08-18T03:33:59.572Z,5.53
2022-08-18T03:36:30.749Z,10.25
2022-08-18T03:38:58.103Z,5.60
2022-08-18T03:41:44.449Z,11.27
2022-08-18T03:44:15.013Z,6.38
2022-08-18T03:46:43.541Z,9.48
2022-08-18T03:49:10.479Z,8.63
2022-08-18T03:51:37.633Z,6.22
2022-08-18T03:54:06.351Z,6.80
2022-08-18T03:56:38.325Z,7.00
2022-08-18T03:59:12.431Z,8.18
2022-08-18T04:01:41.439Z,9.00
2022-08-18T04:04:12.975Z,6.15
2022-08-18T04:06:52.056Z,8.20
2022-08-18T04:09:19.366Z,4.80
2022-08-18T04:11:46.566Z,6.88
2022-08-18T04:14:15.818Z,8.52
2022-08-18T04:16:43.654Z,6.65
2022-08-18T04:19:13.830Z,6.60
2022-08-18T04:21:42.578Z,9.35
2022-08-18T04:24:11.795Z,11.73
2022-08-18T04:26:46.167Z,10.80
2022-08-18T04:29:16.782Z,6.63
2022-08-18T04:31:44.772Z,15.00
2022-08-18T04:34:12.546Z,6.93
2022-08-18T04:36:40.034Z,8.30
2022-08-18T04:39:08.523Z,8.20
2022-08-18T04:41:36.180Z,14.18
2022-08-18T04:44:07.457Z,10.98
2022-08-18T04:46:43.687Z,9.82
2022-08-18T04:49:12.089Z,12.05
2022-08-18T04:52:38.361Z,10.52
2022-08-18T04:54:29.941Z,11.13
2022-08-18T04:56:56.719Z,9.05
2022-08-18T04:59:23.494Z,7.60
2022-08-18T05:01:50.171Z,18.30
2022-08-18T05:04:17.901Z,8.57
2022-08-18T05:06:45.960Z,7.30
2022-08-18T05:09:16.899Z,19.73
2022-08-18T05:11:50.709Z,11.60
2022-08-18T05:14:17.836Z,14.15
2022-08-18T05:16:48.495Z,10.60
2022-08-18T05:19:23.255Z,11.35
2022-08-18T05:21:57.629Z,9.35
2022-08-18T05:24:34.071Z,12.93
2022-08-18T05:27:04.864Z,15.95
2022-08-18T05:29:41.955Z,14.23
2022-08-18T05:32:30.561Z,17.10
2022-08-18T05:35:12.391Z,19.73
2022-08-18T05:38:22.310Z,14.75
2022-08-18T05:41:13.981Z,11.88
2022-08-18T05:43:51.359Z,12.90
2022-08-18T05:46:22.113Z,19.58
2022-08-18T05:48:48.986Z,16.33
2022-08-18T05:51:27.980Z,16.05
2022-08-18T05:54:27.484Z,24.02
2022-08-18T05:57:02.450Z,17.60
2022-08-18T05:59:37.435Z,17.02
2022-08-18T06:02:14.435Z,16.25
2022-08-18T06:04:45.904Z,13.48
2022-08-18T06:07:18.496Z,14.55
2022-08-18T06:09:54.355Z,15.57
2022-08-18T06:12:24.924Z,16.42
2022-08-18T06:14:52.678Z,16.33
2022-08-18T06:17:36.128Z,12.45
2022-08-18T06:23:14.936Z,13.88
2022-08-18T06:25:55.434Z,12.30
2022-08-18T06:28:22.297Z,14.40
2022-08-18T06:31:10.004Z,17.23
2022-08-18T06:34:21.319Z,13.95
2022-08-18T06:36:55.798Z,21.88
2022-08-18T06:39:46.048Z,16.92
2022-08-18T06:42:19.091Z,11.65
2022-08-18T06:44:50.570Z,10.90
2022-08-18T06:47:28.637Z,11.50
2022-08-18T06:49:58.501Z,17.65
2022-08-18T06:52:51.022Z,16.77
2022-08-18T06:55:30.898Z,11.63
2022-08-18T06:58:00.808Z,17.08
2022-08-18T07:00:32.676Z,16.58
2022-08-18T07:03:20.901Z,19.25
2022-08-18T07:06:02.903Z,16.58
2022-08-18T07:08:35.622Z,18.52
2022-08-18T07:11:17.779Z,12.88
2022-08-18T07:13:54.967Z,21.15
2022-08-18T07:16:57.048Z,11.05
2022-08-18T07:19:29.302Z,18.52
2022-08-18T07:22:01.755Z,13.30
2022-08-18T07:24:32.361Z,16.20
2022-08-18T07:27:04.754Z,17.08
2022-08-18T07:29:35.009Z,13.67
2022-08-18T07:32:15.814Z,14.60
2022-08-18T07:34:53.788Z,17.35
2022-08-18T07:37:29.711Z,18.83
2022-08-18T07:39:59.237Z,11.30
2022-08-18T07:42:53.817Z,13.68
2022-08-18T07:45:42.775Z,19.23
2022-08-18T07:48:37.696Z,24.30
2022-08-18T07:51:24.211Z,12.43
2022-08-18T07:54:02.056Z,14.30
2022-08-18T07:56:56.156Z,13.35
2022-08-18T07:59:53.450Z,15.93
2022-08-18T08:02:39.355Z,13.30
2022-08-18T08:05:15.035Z,10.75
2022-08-18T08:07:56.589Z,18.80
2022-08-18T08:10:47.181Z,12.75
2022-08-18T08:13:54.069Z,15.00
2022-08-18T08:16:39.090Z,13.98
2022-08-18T08:19:42.648Z,18.02
2022-08-18T08:22:21.871Z,14.32
2022-08-18T08:24:57.403Z,15.45
2022-08-18T08:27:27.132Z,13.35
2022-08-18T08:30:09.845Z,13.80
2022-08-18T08:32:42.439Z,15.25
2022-08-18T08:35:48.619Z,16.05
2022-08-18T08:38:42.487Z,20.67
2022-08-18T08:41:16.027Z,11.80
2022-08-18T08:43:57.677Z,16.38
2022-08-18T08:46:31.097Z,18.92
2022-08-18T08:49:08.378Z,17.88
2022-08-18T08:51:44.967Z,9.50
2022-08-18T08:54:23.530Z,17.20
2022-08-18T08:56:52.743Z,14.57
2022-08-18T08:59:22.087Z,11.30
2022-08-18T09:01:57.500Z,11.10
2022-08-18T09:04:58.175Z,8.68
2022-08-18T09:07:55.856Z,8.68
2022-08-18T09:10:40.847Z,12.82
2022-08-18T09:13:28.970Z,15.40
2022-08-18T09:16:23.445Z,12.65
2022-08-18T09:18:59.749Z,16.15
2022-08-18T09:21:46.194Z,10.88
2022-08-18T09:24:30.144Z,17.17
2022-08-18T09:27:02.887Z,18.40
2022-08-18T09:29:44.227Z,12.70
2022-08-18T09:32:22.652Z,12.48
2022-08-18T09:35:05.475Z,14.50
2022-08-18T09:37:38.699Z,18.13
2022-08-18T09:43:39.446Z,19.80
2022-08-18T09:46:08.817Z,12.68
2022-08-18T09:48:43.200Z,11.38
2022-08-18T09:51:18.347Z,12.05
2022-08-18T09:53:45.911Z,11.85
2022-08-18T09:56:19.609Z,9.45
2022-08-18T09:59:09.740Z,12.07
2022-08-18T10:01:40.706Z,13.07
2022-08-18T10:04:28.947Z,15.05
2022-08-18T10:07:38.780Z,12.00
2022-08-18T10:13:37.502Z,10.00
2022-08-18T10:16:18.345Z,12.73
2022-08-18T10:19:05.054Z,15.18
2022-08-18T10:22:00.152Z,12.13
2022-08-18T10:25:22.137Z,10.60
2022-08-18T10:27:55.754Z,9.48
2022-08-18T10:33:59.298Z,12.52
2022-08-18T10:36:44.201Z,11.25
2022-08-18T10:39:14.208Z,11.75
2022-08-18T10:41:56.878Z,10.93
2022-08-18T10:44:29.744Z,12.48
2022-08-18T10:49:32.390Z,15.77
2022-08-18T10:52:02.168Z,12.15
2022-08-18T10:54:54.915Z,13.57
2022-08-18T10:57:47.609Z,11.23
2022-08-18T11:00:19.901Z,14.20
2022-08-18T11:05:40.033Z,11.23
2022-08-18T11:08:16.095Z,11.50
2022-08-18T11:11:32.890Z,11.27
2022-08-18T11:14:01.108Z,12.68
2022-08-18T11:17:07.059Z,9.10
2022-08-18T11:19:43.076Z,12.98
2022-08-18T11:22:31.598Z,14.25
2022-08-18T11:25:01.497Z,15.57
2022-08-18T11:27:37.593Z,13.38
2022-08-18T11:30:09.862Z,17.55
2022-08-18T11:32:51.756Z,14.68
2022-08-18T11:35:22.804Z,13.90
2022-08-18T11:37:59.934Z,13.85
2022-08-18T11:41:10.992Z,9.65
2022-08-18T11:43:41.067Z,11.68
2022-08-18T11:46:29.511Z,16.40
2022-08-18T11:48:59.494Z,10.73
2022-08-18T11:51:32.505Z,11.43
2022-08-18T11:56:35.991Z,12.93
2022-08-18T11:59:53.382Z,14.85
2022-08-18T12:02:21.020Z,16.98
2022-08-18T12:04:55.147Z,13.63
2022-08-18T12:07:34.197Z,13.15
2022-08-18T12:10:19.041Z,11.88
2022-08-18T12:12:53.268Z,14.45
2022-08-18T12:15:24.064Z,14.50
2022-08-18T12:17:53.029Z,16.92
2022-08-18T12:20:21.050Z,16.63
2022-08-18T12:22:49.933Z,16.67
2022-08-18T12:25:25.148Z,14.77
2022-08-18T12:27:53.904Z,14.63
2022-08-18T12:30:21.195Z,13.45
2022-08-18T12:32:49.390Z,19.08
2022-08-18T12:35:21.683Z,17.42
2022-08-18T12:38:12.821Z,19.02
2022-08-18T12:40:37.268Z,16.13
2022-08-18T12:43:05.810Z,18.05
2022-08-18T12:45:33.826Z,17.85
2022-08-18T12:48:02.647Z,18.67
2022-08-18T12:50:35.147Z,25.33
2022-08-18T12:53:04.736Z,18.70
2022-08-18T12:55:44.048Z,16.38
2022-08-18T12:58:12.336Z,15.55
2022-08-18T13:00:40.865Z,20.58
2022-08-18T13:03:08.525Z,22.98
2022-08-18T13:05:37.216Z,18.08
2022-08-18T13:08:06.227Z,16.88
2022-08-18T13:10:45.747Z,14.38
2022-08-18T13:13:18.528Z,23.65
2022-08-18T13:15:58.625Z,20.70
2022-08-18T13:18:29.213Z,17.83
2022-08-18T13:21:00.359Z,19.88
2022-08-18T13:23:27.826Z,18.92
2022-08-18T13:26:01.652Z,14.35
2022-08-18T13:28:33.580Z,17.83
2022-08-18T13:31:05.634Z,15.38
2022-08-18T13:33:34.875Z,18.00
2022-08-18T13:36:20.144Z,16.98
2022-08-18T13:38:54.562Z,15.75
2022-08-18T13:43:51.587Z,19.65
2022-08-18T13:46:24.436Z,21.52
2022-08-18T13:49:03.080Z,17.70
2022-08-18T13:51:30.457Z,17.23
2022-08-18T13:54:17.774Z,15.00
2022-08-18T13:56:51.590Z,18.00
2022-08-18T13:59:21.732Z,16.13
2022-08-18T14:01:52.942Z,22.15
2022-08-18T14:04:22.478Z,38.33
2022-08-18T14:06:56.865Z,25.83
2022-08-18T14:09:27.841Z,42.15
2022-08-18T14:12:16.054Z,19.52
2022-08-18T14:14:52.034Z,17.40
2022-08-18T14:17:22.203Z,16.95
2022-08-18T14:20:21.239Z,17.15
2022-08-18T14:23:13.037Z,13.43
2022-08-18T14:26:00.042Z,13.07
2022-08-18T14:28:28.712Z,11.38
2022-08-18T14:30:57.196Z,13.50
2022-08-18T14:33:34.089Z,15.48
2022-08-18T14:36:14.018Z,17.77
2022-08-18T14:38:42.097Z,16.88
2022-08-18T14:41:13.495Z,14.98
2022-08-18T14:44:10.308Z,18.53
2022-08-18T14:46:30.673Z,16.25
2022-08-18T14:49:00.069Z,16.45
2022-08-18T14:51:31.972Z,14.95
2022-08-18T14:54:01.243Z,13.85
2022-08-18T14:56:29.474Z,16.83
2022-08-18T14:58:56.532Z,13.43
2022-08-18T15:01:24.745Z,14.10
2022-08-18T15:03:55.108Z,20.02
2022-08-18T15:06:27.072Z,13.13
2022-08-18T15:08:57.236Z,13.83
2022-08-18T15:11:24.892Z,13.57
2022-08-18T15:13:55.494Z,12.27
2022-08-18T15:16:31.636Z,18.42
2022-08-18T15:18:59.299Z,11.70
2022-08-18T15:21:46.733Z,10.77
2022-08-18T15:24:33.847Z,17.25
2022-08-18T15:27:10.447Z,18.48
2022-08-18T15:29:46.440Z,15.63
2022-08-18T15:32:17.609Z,11.90
2022-08-18T15:34:47.220Z,15.35
2022-08-18T15:37:22.173Z,11.70
2022-08-18T15:40:00.241Z,10.38
2022-08-18T15:42:27.064Z,10.68
2022-08-18T15:44:54.283Z,11.15
2022-08-18T15:47:25.185Z,19.00
2022-08-18T15:49:52.653Z,9.00
2022-08-18T15:52:22.335Z,10.57
2022-08-18T15:54:56.959Z,12.15
2022-08-18T15:57:35.983Z,10.23
2022-08-18T16:00:07.600Z,10.60
2022-08-18T16:02:40.907Z,9.93
2022-08-18T16:05:15.463Z,12.13
2022-08-18T16:07:45.487Z,11.25
2022-08-18T16:10:13.560Z,11.55
2022-08-18T16:12:46.132Z,10.57
2022-08-18T16:15:19.618Z,12.07
2022-08-18T16:17:49.555Z,18.08
2022-08-18T16:20:18.777Z,12.80
2022-08-18T16:22:47.395Z,15.73
2022-08-18T16:25:16.641Z,12.60
2022-08-18T16:27:44.073Z,11.30
2022-08-18T16:30:14.759Z,13.88
2022-08-18T16:32:41.543Z,21.67
2022-08-18T16:35:08.914Z,19.40
2022-08-18T16:37:35.582Z,16.02
2022-08-18T16:40:02.284Z,13.52
2022-08-18T16:42:33.153Z,12.13
2022-08-18T16:45:00.949Z,10.98
2022-08-18T16:47:28.254Z,12.25
2022-08-18T16:49:58.460Z,13.00
2022-08-18T16:52:27.212Z,11.90
2022-08-18T16:54:57.490Z,9.25
2022-08-18T16:57:53.110Z,11.25
2022-08-18T17:00:39.067Z,17.65
2022-08-18T17:03:25.556Z,10.45
2022-08-18T17:06:09.541Z,9.45
2022-08-18T17:08:37.093Z,14.27
2022-08-18T17:11:06.154Z,12.18
2022-08-18T17:13:33.502Z,12.77
2022-08-18T17:16:00.639Z,11.05
2022-08-18T17:18:27.715Z,14.75
2022-08-18T17:20:55.378Z,12.48
2022-08-18T17:23:22.802Z,7.30
2022-08-18T17:25:50.889Z,9.10
2022-08-18T17:28:23.858Z,14.82
2022-08-18T17:30:53.444Z,12.52
2022-08-18T17:33:24.891Z,13.13
2022-08-18T17:35:54.224Z,11.98
2022-08-18T17:38:32.582Z,9.98
2022-08-18T17:41:00.419Z,11.20
2022-08-18T17:43:32.764Z,13.57
2022-08-18T17:46:27.524Z,9.95
2022-08-18T17:49:07.003Z,10.90
2022-08-18T17:51:48.983Z,10.52
2022-08-18T17:54:34.091Z,9.40
2022-08-18T17:57:08.744Z,7.88
2022-08-18T17:59:51.665Z,9.65
2022-08-18T18:02:29.968Z,10.13
2022-08-18T18:05:02.543Z,10.80
2022-08-18T18:07:32.875Z,8.23
2022-08-18T18:10:04.198Z,8.55
2022-08-18T18:12:33.379Z,7.60
2022-08-18T18:15:02.291Z,8.23
2022-08-18T18:17:40.951Z,7.22
2022-08-18T18:20:19.171Z,6.00
2022-08-18T18:22:46.089Z,8.07
2022-08-18T18:25:13.829Z,6.25
2022-08-18T18:27:43.162Z,9.65
2022-08-18T18:30:27.965Z,8.13
2022-08-18T18:33:18.843Z,6.30
2022-08-18T18:35:54.890Z,6.15
2022-08-18T18:38:33.219Z,6.38
2022-08-18T18:41:04.442Z,5.60
2022-08-18T18:43:42.171Z,6.85
2022-08-18T18:46:32.832Z,6.03
2022-08-18T18:49:22.946Z,5.63
2022-08-18T18:52:12.658Z,3.72
2022-08-18T18:54:39.793Z,4.65
2022-08-18T18:57:35.227Z,7.53
2022-08-18T19:00:30.128Z,5.28
2022-08-18T19:03:07.811Z,5.07
2022-08-18T19:05:52.491Z,7.05
2022-08-18T19:08:36.045Z,3.63
2022-08-18T19:11:02.659Z,4.57
2022-08-18T19:13:35.253Z,5.78
2022-08-18T19:16:33.940Z,4.07
2022-08-18T19:19:35.513Z,4.45
2022-08-18T19:22:25.029Z,6.93
2022-08-18T19:25:00.683Z,4.50
2022-08-18T19:27:34.193Z,8.57
2022-08-18T19:30:07.814Z,7.45
2022-08-18T19:32:43.388Z,9.13
2022-08-18T19:35:14.853Z,5.45
2022-08-18T19:38:09.701Z,5.65
2022-08-18T19:40:39.405Z,6.13
2022-08-18T19:43:12.541Z,5.45
2022-08-18T19:46:02.355Z,6.22
2022-08-18T19:48:48.509Z,4.32
2022-08-18T19:51:32.635Z,9.82
2022-08-18T19:54:27.407Z,6.05
2022-08-18T19:57:23.515Z,5.82
2022-08-18T20:00:12.757Z,4.55
2022-08-18T20:03:07.381Z,5.50
2022-08-18T20:06:32.118Z,7.93
2022-08-18T20:08:58.239Z,5.55
2022-08-18T20:11:48.585Z,4.43
2022-08-18T20:14:21.040Z,7.03
2022-08-18T20:17:16.930Z,8.50
2022-08-18T20:19:48.395Z,11.30
2022-08-18T20:22:22.074Z,7.35
2022-08-18T20:24:57.633Z,10.82
2022-08-18T20:27:35.593Z,8.48
2022-08-18T20:30:20.705Z,13.25
2022-08-18T20:33:13.522Z,6.03
2022-08-18T20:38:37.158Z,4.72
2022-08-18T20:41:22.363Z,6.68
2022-08-18T20:43:52.579Z,10.00
2022-08-18T20:46:54.473Z,7.20
2022-08-18T20:49:59.922Z,10.13
2022-08-18T20:52:55.763Z,9.23
2022-08-18T20:55:31.390Z,12.65
2022-08-18T20:58:08.151Z,8.07
2022-08-18T21:00:40.568Z,10.27
2022-08-18T21:03:12.517Z,9.27
2022-08-18T21:05:43.711Z,9.75
2022-08-18T21:08:16.712Z,9.50
2022-08-18T21:13:51.277Z,12.23
2022-08-18T21:16:38.444Z,10.85
2022-08-18T21:19:19.836Z,7.95
2022-08-18T21:21:52.769Z,11.60
2022-08-18T21:24:37.190Z,15.05
2022-08-18T21:27:19.568Z,9.65
2022-08-18T21:29:49.617Z,7.27
2022-08-18T21:32:32.792Z,9.25
2022-08-18T21:35:05.949Z,9.60
2022-08-18T21:37:41.647Z,9.43
2022-08-18T21:40:08.784Z,10.93
2022-08-18T21:42:39.304Z,12.80
2022-08-18T21:45:13.097Z,13.52
2022-08-18T21:47:48.818Z,8.15
2022-08-18T21:50:25.814Z,10.90
2022-08-18T21:53:16.285Z,8.23
2022-08-18T21:55:46.257Z,7.72
2022-08-18T21:58:16.903Z,12.20
2022-08-18T22:01:33.493Z,12.63
2022-08-18T22:04:04.711Z,10.93
2022-08-18T22:06:34.441Z,12.98
2022-08-18T22:09:28.783Z,10.68
2022-08-18T22:12:37.989Z,11.30
2022-08-18T22:15:17.253Z,9.18
2022-08-18T22:17:55.203Z,11.20
2022-08-18T22:20:42.320Z,12.00
2022-08-18T22:23:30.444Z,8.43
2022-08-18T22:26:17.451Z,8.77
2022-08-18T22:29:06.283Z,7.43
2022-08-18T22:31:36.323Z,9.73
2022-08-18T22:34:13.532Z,5.60
2022-08-18T22:37:03.300Z,10.32
2022-08-18T22:39:46.250Z,6.10
2022-08-18T22:42:14.300Z,6.20
2022-08-18T22:44:41.927Z,3.70
2022-08-18T22:47:09.176Z,3.78
2022-08-18T22:49:37.258Z,2.75
2022-08-18T22:52:08.015Z,3.25
2022-08-18T22:54:35.514Z,4.25
2022-08-18T22:57:02.810Z,2.88
2022-08-18T22:59:33.334Z,2.15
2022-08-18T23:02:01.225Z,3.05
2022-08-18T23:04:28.259Z,2.92
2022-08-18T23:06:55.839Z,2.35
2022-08-18T23:09:30.698Z,4.82
2022-08-18T23:12:01.313Z,4.95
2022-08-18T23:14:29.061Z,3.13
2022-08-18T23:16:55.701Z,3.53
2022-08-18T23:19:22.838Z,5.75
2022-08-18T23:21:51.186Z,4.40
2022-08-18T23:24:19.877Z,4.72
2022-08-18T23:26:46.871Z,4.65
2022-08-18T23:29:14.523Z,5.68
2022-08-18T23:31:44.020Z,2.90
2022-08-18T23:34:13.356Z,3.72
2022-08-18T23:36:45.139Z,3.92
2022-08-18T23:39:13.690Z,8.03
2022-08-18T23:41:40.742Z,5.57
2022-08-18T23:44:07.434Z,7.97
2022-08-18T23:46:34.567Z,4.88
2022-08-18T23:49:03.503Z,6.72
2022-08-18T23:51:34.954Z,7.57
2022-08-18T23:54:06.763Z,3.97
2022-08-18T23:56:34.909Z,7.80
2022-08-18T23:59:02.904Z,8.68
